sensor_id;sensor_type;location;lat;lon;timestamp;temperature;humidity
17968;DHT22;9109;48.050;11.696;2022-09-09T03:46:53;16.30;99.90
17968;DHT22;9109;48.050;11.696;2022-09-09T03:49:55;16.20;99.90
17968;DHT22;9109;48.050;11.696;2022-09-09T03:52:57;16.20;99.90
17968;DHT22;9109;48.050;11.696;2022-09-09T03:56:00;16.20;99.90
17968;DHT22;9109;48.050;11.696;2022-09-09T03:59:02;16.20;99.90
17968;DHT22;9109;48.050;11.696;2022-09-09T04:02:05;16.20;99.90
17968;DHT22;9109;48.050;11.696;2022-09-09T04:05:08;16.30;99.90
17968;DHT22;9109;48.050;11.696;2022-09-09T04:08:10;16.30;99.90
17968;DHT22;9109;48.050;11.696;2022-09-09T04:11:13;16.30;99.90
17968;DHT22;9109;48.050;11.696;2022-09-09T04:14:16;16.30;99.90
17968;DHT22;9109;48.050;11.696;2022-09-09T04:17:19;16.30;99.90
17968;DHT22;9109;48.050;11.696;2022-09-09T04:20:21;16.30;99.90
17968;DHT22;9109;48.050;11.696;2022-09-09T04:23:24;16.30;99.90
17968;DHT22;9109;48.050;11.696;2022-09-09T04:26:26;16.30;99.90
17968;DHT22;9109;48.050;11.696;2022-09-09T04:29:29;16.30;99.90
17968;DHT22;9109;48.050;11.696;2022-09-09T04:32:54;16.30;99.90
17968;DHT22;9109;48.050;11.696;2022-09-09T04:36:10;16.20;99.90
17968;DHT22;9109;48.050;11.696;2022-09-09T04:39:13;16.20;99.90
17968;DHT22;9109;48.050;11.696;2022-09-09T04:42:15;16.20;99.90
17968;DHT22;9109;48.050;11.696;2022-09-09T04:45:17;16.20;99.90
17968;DHT22;9109;48.050;11.696;2022-09-09T04:48:20;16.20;99.90
17968;DHT22;9109;48.050;11.696;2022-09-09T04:51:22;16.20;99.90
17968;DHT22;9109;48.050;11.696;2022-09-09T04:54:24;16.20;99.90
17968;DHT22;9109;48.050;11.696;2022-09-09T04:57:26;16.20;99.90
17968;DHT22;9109;48.050;11.696;2022-09-09T05:00:29;16.20;99.90
17968;DHT22;9109;48.050;11.696;2022-09-09T05:03:32;16.20;99.90
17968;DHT22;9109;48.050;11.696;2022-09-09T05:06:34;16.10;99.90
17968;DHT22;9109;48.050;11.696;2022-09-09T05:09:36;16.10;99.90
17968;DHT22;9109;48.050;11.696;2022-09-09T05:12:38;16.10;99.90
17968;DHT22;9109;48.050;11.696;2022-09-09T05:15:40;16.00;99.90
17968;DHT22;9109;48.050;11.696;2022-09-09T05:18:45;16.10;99.90
17968;DHT22;9109;48.050;11.696;2022-09-09T05:21:47;16.10;99.90
17968;DHT22;9109;48.050;11.696;2022-09-09T05:24:50;16.10;99.90
17968;DHT22;9109;48.050;11.696;2022-09-09T05:27:52;16.10;99.90
17968;DHT22;9109;48.050;11.696;2022-09-09T05:30:56;16.10;99.90
17968;DHT22;9109;48.050;11.696;2022-09-09T05:34:00;16.20;99.90
17968;DHT22;9109;48.050;11.696;2022-09-09T05:37:02;16.20;99.90
17968;DHT22;9109;48.050;11.696;2022-09-09T05:40:05;16.20;99.90
17968;DHT22;9109;48.050;11.696;2022-09-09T05:43:07;16.20;99.90
17968;DHT22;9109;48.050;11.696;2022-09-09T05:46:11;16.20;99.90
17968;DHT22;9109;48.050;11.696;2022-09-09T05:49:14;16.20;99.90
17968;DHT22;9109;48.050;11.696;2022-09-09T05:52:16;16.30;99.90
17968;DHT22;9109;48.050;11.696;2022-09-09T05:55:18;16.30;99.90
17968;DHT22;9109;48.050;11.696;2022-09-09T05:58:20;16.30;99.90
17968;DHT22;9109;48.050;11.696;2022-09-09T06:01:25;16.30;99.90
17968;DHT22;9109;48.050;11.696;2022-09-09T06:04:29;16.30;99.90
17968;DHT22;9109;48.050;11.696;2022-09-09T06:07:31;16.30;99.90
17968;DHT22;9109;48.050;11.696;2022-09-09T06:10:33;16.30;99.90
17968;DHT22;9109;48.050;11.696;2022-09-09T06:13:35;16.30;99.90
17968;DHT22;9109;48.050;11.696;2022-09-09T06:16:38;16.30;99.90
17968;DHT22;9109;48.050;11.696;2022-09-09T06:19:41;16.30;99.90
17968;DHT22;9109;48.050;11.696;2022-09-09T06:22:43;16.30;99.90
17968;DHT22;9109;48.050;11.696;2022-09-09T06:25:47;16.30;99.90
17968;DHT22;9109;48.050;11.696;2022-09-09T06:28:50;16.30;99.90
17968;DHT22;9109;48.050;11.696;2022-09-09T06:31:53;16.20;99.90
17968;DHT22;9109;48.050;11.696;2022-09-09T06:34:56;16.20;99.90
17968;DHT22;9109;48.050;11.696;2022-09-09T06:37:59;16.20;99.90
17968;DHT22;9109;48.050;11.696;2022-09-09T06:41:01;16.30;99.90
17968;DHT22;9109;48.050;11.696;2022-09-09T06:44:03;16.30;99.90
17968;DHT22;9109;48.050;11.696;2022-09-09T06:47:05;16.30;99.90
17968;DHT22;9109;48.050;11.696;2022-09-09T06:50:09;16.20;99.90
17968;DHT22;9109;48.050;11.696;2022-09-09T06:53:11;16.20;99.90
17968;DHT22;9109;48.050;11.696;2022-09-09T06:56:22;16.10;99.90
17968;DHT22;9109;48.050;11.696;2022-09-09T06:59:24;16.10;99.90
17968;DHT22;9109;48.050;11.696;2022-09-09T07:02:27;16.20;99.90
17968;DHT22;9109;48.050;11.696;2022-09-09T07:05:31;16.20;99.90
17968;DHT22;9109;48.050;11.696;2022-09-09T07:08:33;16.20;99.90
17968;DHT22;9109;48.050;11.696;2022-09-09T07:11:38;16.30;99.90
17968;DHT22;9109;48.050;11.696;2022-09-09T07:14:40;16.30;99.90
17968;DHT22;9109;48.050;11.696;2022-09-09T07:17:42;16.30;99.90
17968;DHT22;9109;48.050;11.696;2022-09-09T07:20:54;16.30;99.90
17968;DHT22;9109;48.050;11.696;2022-09-09T07:23:56;16.30;99.90
17968;DHT22;9109;48.050;11.696;2022-09-09T07:26:58;16.40;99.90
17968;DHT22;9109;48.050;11.696;2022-09-09T07:30:01;16.40;99.90
17968;DHT22;9109;48.050;11.696;2022-09-09T07:33:04;16.40;99.90
17968;DHT22;9109;48.050;11.696;2022-09-09T07:36:13;16.40;99.90
17968;DHT22;9109;48.050;11.696;2022-09-09T07:39:15;16.40;99.90
17968;DHT22;9109;48.050;11.696;2022-09-09T07:42:17;16.50;99.90
17968;DHT22;9109;48.050;11.696;2022-09-09T07:45:22;16.40;99.90
17968;DHT22;9109;48.050;11.696;2022-09-09T07:48:24;16.40;99.90
17968;DHT22;9109;48.050;11.696;2022-09-09T07:51:29;16.30;99.90
17968;DHT22;9109;48.050;11.696;2022-09-09T07:54:31;16.30;99.90
17968;DHT22;9109;48.050;11.696;2022-09-09T07:57:33;16.30;99.90
17968;DHT22;9109;48.050;11.696;2022-09-09T08:00:35;16.20;99.90
17968;DHT22;9109;48.050;11.696;2022-09-09T08:03:37;16.10;99.90
17968;DHT22;9109;48.050;11.696;2022-09-09T08:06:42;16.10;99.90
17968;DHT22;9109;48.050;11.696;2022-09-09T08:09:44;16.20;99.90
17968;DHT22;9109;48.050;11.696;2022-09-09T08:12:47;16.20;99.90
17968;DHT22;9109;48.050;11.696;2022-09-09T08:15:51;16.20;99.90
17968;DHT22;9109;48.050;11.696;2022-09-09T08:18:53;16.30;99.90
17968;DHT22;9109;48.050;11.696;2022-09-09T08:21:57;16.30;99.90
17968;DHT22;9109;48.050;11.696;2022-09-09T08:24:58;16.40;99.90
17968;DHT22;9109;48.050;11.696;2022-09-09T08:28:01;16.50;99.90
17968;DHT22;9109;48.050;11.696;2022-09-09T08:31:09;16.60;99.90
17968;DHT22;9109;48.050;11.696;2022-09-09T08:34:11;16.60;99.90
17968;DHT22;9109;48.050;11.696;2022-09-09T08:37:14;16.70;99.90
17968;DHT22;9109;48.050;11.696;2022-09-09T08:40:23;16.60;99.90
17968;DHT22;9109;48.050;11.696;2022-09-09T08:43:28;16.60;99.90
17968;DHT22;9109;48.050;11.696;2022-09-09T08:46:38;16.60;99.90
17968;DHT22;9109;48.050;11.696;2022-09-09T08:49:59;16.60;99.90
17968;DHT22;9109;48.050;11.696;2022-09-09T08:53:11;16.70;99.90
17968;DHT22;9109;48.050;11.696;2022-09-09T08:56:16;16.70;99.90
17968;DHT22;9109;48.050;11.696;2022-09-09T08:59:20;16.70;99.90
17968;DHT22;9109;48.050;11.696;2022-09-09T09:02:25;16.70;99.90
17968;DHT22;9109;48.050;11.696;2022-09-09T09:05:35;16.70;99.90
17968;DHT22;9109;48.050;11.696;2022-09-09T09:08:45;16.70;99.90
17968;DHT22;9109;48.050;11.696;2022-09-09T09:11:51;16.70;99.90
17968;DHT22;9109;48.050;11.696;2022-09-09T09:14:55;16.70;99.90
17968;DHT22;9109;48.050;11.696;2022-09-09T09:17:59;16.70;99.90
17968;DHT22;9109;48.050;11.696;2022-09-09T09:21:05;16.70;99.90
17968;DHT22;9109;48.050;11.696;2022-09-09T09:24:16;16.80;99.90
17968;DHT22;9109;48.050;11.696;2022-09-09T09:27:30;16.70;99.90
17968;DHT22;9109;48.050;11.696;2022-09-09T09:30:36;16.70;99.90
17968;DHT22;9109;48.050;11.696;2022-09-09T09:33:47;16.80;99.90
17968;DHT22;9109;48.050;11.696;2022-09-09T09:36:53;16.70;99.90
17968;DHT22;9109;48.050;11.696;2022-09-09T09:40:08;16.80;99.90
17968;DHT22;9109;48.050;11.696;2022-09-09T09:43:19;16.90;99.90
17968;DHT22;9109;48.050;11.696;2022-09-09T09:46:24;16.90;99.90
17968;DHT22;9109;48.050;11.696;2022-09-09T09:49:26;16.90;99.90
17968;DHT22;9109;48.050;11.696;2022-09-09T09:52:30;16.90;99.90
17968;DHT22;9109;48.050;11.696;2022-09-09T09:55:35;17.00;99.90
17968;DHT22;9109;48.050;11.696;2022-09-09T09:58:49;17.00;99.90
17968;DHT22;9109;48.050;11.696;2022-09-09T10:01:51;17.10;99.90
17968;DHT22;9109;48.050;11.696;2022-09-09T10:05:01;17.20;99.90
17968;DHT22;9109;48.050;11.696;2022-09-09T10:08:08;17.30;99.90
17968;DHT22;9109;48.050;11.696;2022-09-09T10:11:30;17.30;99.90
17968;DHT22;9109;48.050;11.696;2022-09-09T10:14:42;17.40;99.90
17968;DHT22;9109;48.050;11.696;2022-09-09T10:17:54;17.50;99.90
17968;DHT22;9109;48.050;11.696;2022-09-09T10:21:03;17.40;99.90
17968;DHT22;9109;48.050;11.696;2022-09-09T10:24:28;17.40;99.90
17968;DHT22;9109;48.050;11.696;2022-09-09T10:27:38;17.40;99.90
17968;DHT22;9109;48.050;11.696;2022-09-09T10:30:51;17.40;99.90
17968;DHT22;9109;48.050;11.696;2022-09-09T10:34:03;17.40;99.90
17968;DHT22;9109;48.050;11.696;2022-09-09T10:37:16;17.50;99.90
17968;DHT22;9109;48.050;11.696;2022-09-09T10:40:33;17.50;99.90
17968;DHT22;9109;48.050;11.696;2022-09-09T10:47:20;17.50;99.90
17968;DHT22;9109;48.050;11.696;2022-09-09T10:50:48;17.50;99.90
17968;DHT22;9109;48.050;11.696;2022-09-09T10:54:12;17.50;99.90
17968;DHT22;9109;48.050;11.696;2022-09-09T10:57:24;17.50;99.90
17968;DHT22;9109;48.050;11.696;2022-09-09T11:00:38;17.50;99.90
17968;DHT22;9109;48.050;11.696;2022-09-09T11:03:42;17.60;99.90
17968;DHT22;9109;48.050;11.696;2022-09-09T11:06:48;17.70;99.90
17968;DHT22;9109;48.050;11.696;2022-09-09T11:09:56;17.70;99.90
17968;DHT22;9109;48.050;11.696;2022-09-09T11:13:04;17.70;99.90
17968;DHT22;9109;48.050;11.696;2022-09-09T11:16:19;17.70;99.90
17968;DHT22;9109;48.050;11.696;2022-09-09T11:19:28;17.70;99.90
17968;DHT22;9109;48.050;11.696;2022-09-09T11:22:35;17.70;99.90
17968;DHT22;9109;48.050;11.696;2022-09-09T11:25:41;17.70;99.90
17968;DHT22;9109;48.050;11.696;2022-09-09T11:28:56;17.70;99.90
17968;DHT22;9109;48.050;11.696;2022-09-09T11:32:18;17.60;99.90
17968;DHT22;9109;48.050;11.696;2022-09-09T11:35:33;17.70;99.90
17968;DHT22;9109;48.050;11.696;2022-09-09T11:38:45;17.70;99.90
17968;DHT22;9109;48.050;11.696;2022-09-09T11:41:47;17.80;99.90
17968;DHT22;9109;48.050;11.696;2022-09-09T11:44:50;17.90;99.90
17968;DHT22;9109;48.050;11.696;2022-09-09T11:47:54;18.00;99.90
17968;DHT22;9109;48.050;11.696;2022-09-09T11:51:02;18.10;99.90
17968;DHT22;9109;48.050;11.696;2022-09-09T11:54:30;18.20;99.90
17968;DHT22;9109;48.050;11.696;2022-09-09T11:57:34;18.20;99.90
17968;DHT22;9109;48.050;11.696;2022-09-09T12:00:39;18.20;99.90
17968;DHT22;9109;48.050;11.696;2022-09-09T12:03:46;18.30;99.90
17968;DHT22;9109;48.050;11.696;2022-09-09T12:06:52;18.30;99.90
17968;DHT22;9109;48.050;11.696;2022-09-09T12:09:57;18.40;99.90
17968;DHT22;9109;48.050;11.696;2022-09-09T12:13:13;18.50;99.90
17968;DHT22;9109;48.050;11.696;2022-09-09T12:16:29;18.50;99.90
17968;DHT22;9109;48.050;11.696;2022-09-09T12:19:35;18.50;99.90
17968;DHT22;9109;48.050;11.696;2022-09-09T12:22:46;18.50;99.90
17968;DHT22;9109;48.050;11.696;2022-09-09T12:29:33;18.50;99.90
17968;DHT22;9109;48.050;11.696;2022-09-09T12:32:39;18.50;99.90
17968;DHT22;9109;48.050;11.696;2022-09-09T12:35:44;18.60;99.90
17968;DHT22;9109;48.050;11.696;2022-09-09T12:38:47;18.70;99.90
17968;DHT22;9109;48.050;11.696;2022-09-09T12:41:52;18.80;99.90
17968;DHT22;9109;48.050;11.696;2022-09-09T12:44:59;18.80;99.90
17968;DHT22;9109;48.050;11.696;2022-09-09T12:48:04;18.80;99.90
17968;DHT22;9109;48.050;11.696;2022-09-09T12:51:19;18.90;99.90
17968;DHT22;9109;48.050;11.696;2022-09-09T12:54:23;19.00;99.90
17968;DHT22;9109;48.050;11.696;2022-09-09T12:57:26;19.10;99.90
17968;DHT22;9109;48.050;11.696;2022-09-09T13:00:31;19.20;99.90
17968;DHT22;9109;48.050;11.696;2022-09-09T13:03:41;19.20;99.90
17968;DHT22;9109;48.050;11.696;2022-09-09T13:06:47;19.20;99.90
17968;DHT22;9109;48.050;11.696;2022-09-09T13:09:49;19.10;99.90
17968;DHT22;9109;48.050;11.696;2022-09-09T13:12:51;19.20;99.90
17968;DHT22;9109;48.050;11.696;2022-09-09T13:15:54;19.10;99.90
17968;DHT22;9109;48.050;11.696;2022-09-09T13:18:58;19.20;99.90
17968;DHT22;9109;48.050;11.696;2022-09-09T13:22:12;19.20;99.90
17968;DHT22;9109;48.050;11.696;2022-09-09T13:25:21;19.00;99.90
17968;DHT22;9109;48.050;11.696;2022-09-09T13:28:28;18.90;99.90
17968;DHT22;9109;48.050;11.696;2022-09-09T13:31:33;18.80;99.90
17968;DHT22;9109;48.050;11.696;2022-09-09T13:34:36;18.80;99.90
17968;DHT22;9109;48.050;11.696;2022-09-09T13:37:39;18.70;99.90
17968;DHT22;9109;48.050;11.696;2022-09-09T13:40:52;18.60;99.90
17968;DHT22;9109;48.050;11.696;2022-09-09T13:43:55;18.60;99.90
17968;DHT22;9109;48.050;11.696;2022-09-09T13:47:03;18.50;99.90
17968;DHT22;9109;48.050;11.696;2022-09-09T13:50:19;18.50;99.90
17968;DHT22;9109;48.050;11.696;2022-09-09T13:53:22;18.40;99.90
17968;DHT22;9109;48.050;11.696;2022-09-09T13:56:24;18.40;99.90
17968;DHT22;9109;48.050;11.696;2022-09-09T13:59:26;18.30;99.90
17968;DHT22;9109;48.050;11.696;2022-09-09T14:02:28;18.30;99.90
17968;DHT22;9109;48.050;11.696;2022-09-09T14:05:32;18.30;99.90
17968;DHT22;9109;48.050;11.696;2022-09-09T14:08:36;18.20;99.90
17968;DHT22;9109;48.050;11.696;2022-09-09T14:11:39;18.20;99.90
17968;DHT22;9109;48.050;11.696;2022-09-09T14:14:42;18.20;99.90
17968;DHT22;9109;48.050;11.696;2022-09-09T14:17:44;18.20;99.90
17968;DHT22;9109;48.050;11.696;2022-09-09T14:20:46;18.20;99.90
17968;DHT22;9109;48.050;11.696;2022-09-09T14:23:50;18.10;99.90
17968;DHT22;9109;48.050;11.696;2022-09-09T14:26:53;18.10;99.90
17968;DHT22;9109;48.050;11.696;2022-09-09T14:29:55;18.10;99.90
17968;DHT22;9109;48.050;11.696;2022-09-09T14:32:58;18.10;99.90
17968;DHT22;9109;48.050;11.696;2022-09-09T14:36:02;18.10;99.90
17968;DHT22;9109;48.050;11.696;2022-09-09T14:39:06;18.20;99.90
17968;DHT22;9109;48.050;11.696;2022-09-09T14:42:08;18.20;99.90
17968;DHT22;9109;48.050;11.696;2022-09-09T14:45:12;18.30;99.90
17968;DHT22;9109;48.050;11.696;2022-09-09T14:48:13;18.30;99.90
17968;DHT22;9109;48.050;11.696;2022-09-09T14:51:17;18.30;99.90
17968;DHT22;9109;48.050;11.696;2022-09-09T14:54:21;18.40;99.90
17968;DHT22;9109;48.050;11.696;2022-09-09T14:57:23;18.40;99.90
17968;DHT22;9109;48.050;11.696;2022-09-09T15:00:25;18.40;99.90
17968;DHT22;9109;48.050;11.696;2022-09-09T15:03:27;18.40;99.90
17968;DHT22;9109;48.050;11.696;2022-09-09T15:06:30;18.40;99.90
17968;DHT22;9109;48.050;11.696;2022-09-09T15:09:34;18.50;99.90
17968;DHT22;9109;48.050;11.696;2022-09-09T15:12:37;18.60;99.90
17968;DHT22;9109;48.050;11.696;2022-09-09T15:15:39;18.60;99.90
17968;DHT22;9109;48.050;11.696;2022-09-09T15:18:42;18.60;99.90
17968;DHT22;9109;48.050;11.696;2022-09-09T15:21:45;18.60;99.90
17968;DHT22;9109;48.050;11.696;2022-09-09T15:24:49;18.60;99.90
17968;DHT22;9109;48.050;11.696;2022-09-09T15:27:51;18.50;99.90
17968;DHT22;9109;48.050;11.696;2022-09-09T15:30:53;18.50;99.90
17968;DHT22;9109;48.050;11.696;2022-09-09T15:33:58;18.50;99.90
17968;DHT22;9109;48.050;11.696;2022-09-09T15:37:02;18.50;99.90
17968;DHT22;9109;48.050;11.696;2022-09-09T15:40:06;18.50;99.90
17968;DHT22;9109;48.050;11.696;2022-09-09T15:43:08;18.40;99.90
17968;DHT22;9109;48.050;11.696;2022-09-09T15:46:32;18.30;99.90
17968;DHT22;9109;48.050;11.696;2022-09-09T15:49:36;18.30;99.90
17968;DHT22;9109;48.050;11.696;2022-09-09T15:52:39;18.20;99.90
17968;DHT22;9109;48.050;11.696;2022-09-09T15:55:42;18.20;99.90
17968;DHT22;9109;48.050;11.696;2022-09-09T15:58:44;18.30;99.90
17968;DHT22;9109;48.050;11.696;2022-09-09T16:01:46;18.30;99.90
17968;DHT22;9109;48.050;11.696;2022-09-09T16:04:51;18.20;99.90
17968;DHT22;9109;48.050;11.696;2022-09-09T16:07:53;18.30;99.90
17968;DHT22;9109;48.050;11.696;2022-09-09T16:10:56;18.30;99.90
17968;DHT22;9109;48.050;11.696;2022-09-09T16:14:06;18.20;99.90
17968;DHT22;9109;48.050;11.696;2022-09-09T16:17:08;18.20;99.90
17968;DHT22;9109;48.050;11.696;2022-09-09T16:20:10;18.10;99.90
17968;DHT22;9109;48.050;11.696;2022-09-09T16:23:12;18.10;99.90
17968;DHT22;9109;48.050;11.696;2022-09-09T16:26:16;18.10;99.90
17968;DHT22;9109;48.050;11.696;2022-09-09T16:29:19;18.00;99.90
17968;DHT22;9109;48.050;11.696;2022-09-09T16:32:22;18.00;99.90
17968;DHT22;9109;48.050;11.696;2022-09-09T16:35:24;17.90;99.90
17968;DHT22;9109;48.050;11.696;2022-09-09T16:38:26;17.90;99.90
17968;DHT22;9109;48.050;11.696;2022-09-09T16:41:30;17.90;99.90
17968;DHT22;9109;48.050;11.696;2022-09-09T16:44:32;18.00;99.90
17968;DHT22;9109;48.050;11.696;2022-09-09T16:47:34;18.00;99.90
17968;DHT22;9109;48.050;11.696;2022-09-09T16:50:36;18.00;99.90
17968;DHT22;9109;48.050;11.696;2022-09-09T16:53:38;18.00;99.90
17968;DHT22;9109;48.050;11.696;2022-09-09T16:56:43;18.00;99.90
17968;DHT22;9109;48.050;11.696;2022-09-09T16:59:45;18.00;99.90
17968;DHT22;9109;48.050;11.696;2022-09-09T17:02:48;17.90;99.90
17968;DHT22;9109;48.050;11.696;2022-09-09T17:05:50;17.80;99.90
17968;DHT22;9109;48.050;11.696;2022-09-09T17:08:54;17.80;99.90
17968;DHT22;9109;48.050;11.696;2022-09-09T17:11:58;17.70;99.90
17968;DHT22;9109;48.050;11.696;2022-09-09T17:15:00;17.70;99.90
17968;DHT22;9109;48.050;11.696;2022-09-09T17:18:03;17.60;99.90
17968;DHT22;9109;48.050;11.696;2022-09-09T17:21:07;17.60;99.90
17968;DHT22;9109;48.050;11.696;2022-09-09T17:24:11;17.50;99.90
17968;DHT22;9109;48.050;11.696;2022-09-09T17:27:14;17.40;99.90
17968;DHT22;9109;48.050;11.696;2022-09-09T17:30:17;17.40;99.90
17968;DHT22;9109;48.050;11.696;2022-09-09T17:33:19;17.30;99.90
17968;DHT22;9109;48.050;11.696;2022-09-09T17:36:23;17.30;99.90
17968;DHT22;9109;48.050;11.696;2022-09-09T17:39:25;17.20;99.90
17968;DHT22;9109;48.050;11.696;2022-09-09T17:42:28;17.10;99.90
17968;DHT22;9109;48.050;11.696;2022-09-09T17:45:30;17.10;99.90
17968;DHT22;9109;48.050;11.696;2022-09-09T17:48:32;17.10;99.90
17968;DHT22;9109;48.050;11.696;2022-09-09T17:51:35;17.10;99.90
17968;DHT22;9109;48.050;11.696;2022-09-09T17:54:37;17.00;99.90
17968;DHT22;9109;48.050;11.696;2022-09-09T17:57:40;17.00;99.90
17968;DHT22;9109;48.050;11.696;2022-09-09T18:00:42;17.00;99.90
17968;DHT22;9109;48.050;11.696;2022-09-09T18:03:45;17.00;99.90
17968;DHT22;9109;48.050;11.696;2022-09-09T18:06:49;17.10;99.90
17968;DHT22;9109;48.050;11.696;2022-09-09T18:09:51;17.10;99.90
17968;DHT22;9109;48.050;11.696;2022-09-09T18:12:54;17.10;99.90
17968;DHT22;9109;48.050;11.696;2022-09-09T18:15:58;17.10;99.90
17968;DHT22;9109;48.050;11.696;2022-09-09T18:19:00;17.10;99.90
17968;DHT22;9109;48.050;11.696;2022-09-09T18:22:03;17.10;99.90
17968;DHT22;9109;48.050;11.696;2022-09-09T18:25:06;17.10;99.90
17968;DHT22;9109;48.050;11.696;2022-09-09T18:28:10;17.20;99.90
17968;DHT22;9109;48.050;11.696;2022-09-09T18:31:13;17.20;99.90
17968;DHT22;9109;48.050;11.696;2022-09-09T18:34:17;17.20;99.90
17968;DHT22;9109;48.050;11.696;2022-09-09T18:37:19;17.20;99.90
17968;DHT22;9109;48.050;11.696;2022-09-09T18:40:21;17.20;99.90
17968;DHT22;9109;48.050;11.696;2022-09-09T18:43:24;17.20;99.90
17968;DHT22;9109;48.050;11.696;2022-09-09T18:46:28;17.10;99.90
17968;DHT22;9109;48.050;11.696;2022-09-09T18:49:30;17.20;99.90
17968;DHT22;9109;48.050;11.696;2022-09-09T18:52:32;17.20;99.90
17968;DHT22;9109;48.050;11.696;2022-09-09T18:55:34;17.30;99.90
17968;DHT22;9109;48.050;11.696;2022-09-09T18:58:39;17.30;99.90
17968;DHT22;9109;48.050;11.696;2022-09-09T19:01:43;17.30;99.90
17968;DHT22;9109;48.050;11.696;2022-09-09T19:04:46;17.30;99.90
17968;DHT22;9109;48.050;11.696;2022-09-09T19:07:49;17.30;99.90
17968;DHT22;9109;48.050;11.696;2022-09-09T19:10:51;17.30;99.90
17968;DHT22;9109;48.050;11.696;2022-09-09T19:13:56;17.30;99.90
17968;DHT22;9109;48.050;11.696;2022-09-09T19:16:59;17.30;99.90
17968;DHT22;9109;48.050;11.696;2022-09-09T19:20:01;17.30;99.90
17968;DHT22;9109;48.050;11.696;2022-09-09T19:23:03;17.30;99.90
17968;DHT22;9109;48.050;11.696;2022-09-09T19:26:05;17.20;99.90
17968;DHT22;9109;48.050;11.696;2022-09-09T19:29:11;17.20;99.90
17968;DHT22;9109;48.050;11.696;2022-09-09T19:32:13;17.10;99.90
17968;DHT22;9109;48.050;11.696;2022-09-09T19:35:15;17.00;99.90
17968;DHT22;9109;48.050;11.696;2022-09-09T19:38:18;17.00;99.90
17968;DHT22;9109;48.050;11.696;2022-09-09T19:41:22;16.80;99.90
17968;DHT22;9109;48.050;11.696;2022-09-09T19:44:26;16.50;99.90
17968;DHT22;9109;48.050;11.696;2022-09-09T19:47:28;16.40;99.90
17968;DHT22;9109;48.050;11.696;2022-09-09T19:50:29;16.20;99.90
17968;DHT22;9109;48.050;11.696;2022-09-09T19:53:34;16.00;99.90
17968;DHT22;9109;48.050;11.696;2022-09-09T19:56:38;15.90;99.90
17968;DHT22;9109;48.050;11.696;2022-09-09T19:59:42;15.80;99.90
17968;DHT22;9109;48.050;11.696;2022-09-09T20:02:44;15.80;99.90
17968;DHT22;9109;48.050;11.696;2022-09-09T20:05:47;16.00;99.90
17968;DHT22;9109;48.050;11.696;2022-09-09T20:08:50;16.10;99.90
17968;DHT22;9109;48.050;11.696;2022-09-09T20:11:52;16.30;99.90
17968;DHT22;9109;48.050;11.696;2022-09-09T20:14:55;16.40;99.90
17968;DHT22;9109;48.050;11.696;2022-09-09T20:17:57;16.60;99.90
17968;DHT22;9109;48.050;11.696;2022-09-09T20:21:00;16.60;99.90
17968;DHT22;9109;48.050;11.696;2022-09-09T20:24:05;16.60;99.90
17968;DHT22;9109;48.050;11.696;2022-09-09T20:27:07;16.70;99.90
17968;DHT22;9109;48.050;11.696;2022-09-09T20:30:11;16.80;99.90
17968;DHT22;9109;48.050;11.696;2022-09-09T20:33:14;16.80;99.90
17968;DHT22;9109;48.050;11.696;2022-09-09T20:36:17;16.80;99.90
17968;DHT22;9109;48.050;11.696;2022-09-09T20:39:19;16.80;99.90
17968;DHT22;9109;48.050;11.696;2022-09-09T20:42:21;16.90;99.90
17968;DHT22;9109;48.050;11.696;2022-09-09T20:45:25;16.80;99.90
17968;DHT22;9109;48.050;11.696;2022-09-09T20:48:31;16.80;99.90
17968;DHT22;9109;48.050;11.696;2022-09-09T20:51:35;16.80;99.90
17968;DHT22;9109;48.050;11.696;2022-09-09T20:54:37;16.90;99.90
17968;DHT22;9109;48.050;11.696;2022-09-09T20:57:40;16.90;99.90
17968;DHT22;9109;48.050;11.696;2022-09-09T21:03:52;16.90;99.90
17968;DHT22;9109;48.050;11.696;2022-09-09T21:06:55;16.80;99.90
17968;DHT22;9109;48.050;11.696;2022-09-09T21:09:57;16.80;99.90
17968;DHT22;9109;48.050;11.696;2022-09-09T21:13:00;16.80;99.90
17968;DHT22;9109;48.050;11.696;2022-09-09T21:16:03;16.80;99.90
17968;DHT22;9109;48.050;11.696;2022-09-09T21:19:07;16.70;99.90
17968;DHT22;9109;48.050;11.696;2022-09-09T21:22:09;16.70;99.90
17968;DHT22;9109;48.050;11.696;2022-09-09T21:25:13;16.60;99.90
17968;DHT22;9109;48.050;11.696;2022-09-09T21:31:24;16.60;99.90
17968;DHT22;9109;48.050;11.696;2022-09-09T21:34:28;16.50;99.90
17968;DHT22;9109;48.050;11.696;2022-09-09T21:37:44;16.50;99.90
17968;DHT22;9109;48.050;11.696;2022-09-09T21:40:46;16.40;99.90
17968;DHT22;9109;48.050;11.696;2022-09-09T21:43:51;16.10;99.90
17968;DHT22;9109;48.050;11.696;2022-09-09T21:46:53;15.90;99.90
17968;DHT22;9109;48.050;11.696;2022-09-09T21:49:56;15.70;99.90
17968;DHT22;9109;48.050;11.696;2022-09-09T21:53:00;15.60;99.90
17968;DHT22;9109;48.050;11.696;2022-09-09T21:56:04;15.50;99.90
17968;DHT22;9109;48.050;11.696;2022-09-09T21:59:06;15.50;99.90
17968;DHT22;9109;48.050;11.696;2022-09-09T22:02:08;15.50;99.90
17968;DHT22;9109;48.050;11.696;2022-09-09T22:05:15;15.50;99.90
17968;DHT22;9109;48.050;11.696;2022-09-09T22:08:21;15.40;99.90
17968;DHT22;9109;48.050;11.696;2022-09-09T22:15:43;15.40;99.90
17968;DHT22;9109;48.050;11.696;2022-09-09T22:18:50;15.30;99.90
17968;DHT22;9109;48.050;11.696;2022-09-09T22:21:59;15.30;99.90
17968;DHT22;9109;48.050;11.696;2022-09-09T22:25:01;15.30;99.90
17968;DHT22;9109;48.050;11.696;2022-09-09T22:28:04;15.30;99.90
17968;DHT22;9109;48.050;11.696;2022-09-09T22:31:06;15.20;99.90
17968;DHT22;9109;48.050;11.696;2022-09-09T22:34:08;15.20;99.90
17968;DHT22;9109;48.050;11.696;2022-09-09T22:37:12;15.20;99.90
17968;DHT22;9109;48.050;11.696;2022-09-09T22:40:14;15.20;99.90
17968;DHT22;9109;48.050;11.696;2022-09-09T22:43:17;15.20;99.90
17968;DHT22;9109;48.050;11.696;2022-09-09T22:46:20;15.10;99.90
17968;DHT22;9109;48.050;11.696;2022-09-09T22:49:23;15.20;99.90
17968;DHT22;9109;48.050;11.696;2022-09-09T22:52:27;15.20;99.90
17968;DHT22;9109;48.050;11.696;2022-09-09T22:55:30;15.20;99.90
17968;DHT22;9109;48.050;11.696;2022-09-09T22:58:34;15.20;99.90
